Cadwell, Georgia
Current Conditions -  °F | °C
As of 1:15 AM on Monday 22 Dec 2014 (Local Time) from KEZM Reporting Station
Haze Haze  
Wind Chill: 45°   Ceiling: 400
Heat Index: 47°   Visibility: 3mi
Dew Point: 47°   Wind: 5mph
Humidity: 100%   Direction: 10°N
Pressure: 30.1"   Gusts: NA
Location:  32.34°N, 83.04°W
Report Text: KEZM 220615Z AUTO 01004KT 3SM BR OVC004 09/09 A3010 RMK AO2 T00850085
Loading
Personal Weather Stations






























Interactive Weather Map New forecast layout! Learn more

10-Day Weather Forecast

Advertisements
Track Severe Weather on mobile